createdAt,value
2023-02-14T00:01:40.857Z,11.30
2023-02-14T00:04:45.849Z,10.43
2023-02-14T00:07:48.421Z,9.40
2023-02-14T00:10:51.413Z,8.60
2023-02-14T00:14:12.621Z,8.77
2023-02-14T00:17:15.626Z,7.87
2023-02-14T00:20:18.384Z,6.87
2023-02-14T00:23:21.640Z,6.62
2023-02-14T00:26:24.163Z,6.00
2023-02-14T00:29:31.632Z,6.20
2023-02-14T00:32:34.814Z,6.30
2023-02-14T00:35:38.696Z,6.25
2023-02-14T00:38:41.178Z,6.37
2023-02-14T00:41:44.931Z,7.20
2023-02-14T00:44:47.469Z,6.45
2023-02-14T00:47:50.263Z,6.07
2023-02-14T00:50:54.169Z,6.82
2023-02-14T00:53:57.065Z,6.07
2023-02-14T00:56:59.856Z,6.63
2023-02-14T01:00:02.894Z,6.72
2023-02-14T01:03:06.995Z,6.95
2023-02-14T01:06:10.350Z,7.20
2023-02-14T01:09:12.933Z,8.00
2023-02-14T01:12:15.821Z,7.30
2023-02-14T01:15:18.351Z,6.97
2023-02-14T01:18:21.334Z,6.80
2023-02-14T01:21:29.868Z,6.62
2023-02-14T01:24:32.834Z,5.97
2023-02-14T01:27:36.099Z,5.07
2023-02-14T01:30:39.081Z,5.93
2023-02-14T01:33:43.280Z,5.47
2023-02-14T01:36:46.203Z,6.53
2023-02-14T01:39:48.792Z,5.65
2023-02-14T01:42:51.878Z,5.10
2023-02-14T01:45:54.735Z,6.25
2023-02-14T01:49:05.795Z,5.65
2023-02-14T01:52:32.461Z,5.37
2023-02-14T01:55:39.531Z,4.87
2023-02-14T01:58:45.113Z,5.90
2023-02-14T02:01:50.195Z,5.85
2023-02-14T02:04:55.341Z,6.05
2023-02-14T02:08:01.258Z,6.45
2023-02-14T02:11:04.194Z,5.57
2023-02-14T02:14:06.827Z,6.30
2023-02-14T02:17:24.614Z,5.97
2023-02-14T02:20:39.395Z,5.55
2023-02-14T02:23:42.287Z,5.57
2023-02-14T02:27:10.052Z,6.45
2023-02-14T02:30:28.057Z,6.53
2023-02-14T02:33:52.541Z,5.90
2023-02-14T02:37:07.503Z,6.12
2023-02-14T02:40:16.132Z,5.87
2023-02-14T02:43:21.662Z,6.40
2023-02-14T02:46:49.534Z,6.10
2023-02-14T02:50:17.667Z,6.68
2023-02-14T02:53:48.169Z,6.75
2023-02-14T02:56:55.983Z,6.80
2023-02-14T02:59:59.651Z,6.25
2023-02-14T03:03:21.366Z,6.17
2023-02-14T03:06:23.962Z,5.68
2023-02-14T03:09:26.673Z,5.85
2023-02-14T03:12:33.659Z,6.22
2023-02-14T03:15:42.327Z,5.15
2023-02-14T03:19:10.769Z,5.33
2023-02-14T03:22:13.549Z,4.78
2023-02-14T03:25:23.219Z,5.45
2023-02-14T03:28:51.375Z,5.20
2023-02-14T03:32:12.730Z,4.43
2023-02-14T03:35:40.406Z,4.63
2023-02-14T03:38:59.366Z,5.53
2023-02-14T03:42:07.914Z,5.10
2023-02-14T03:45:15.545Z,5.07
2023-02-14T03:48:19.856Z,4.68
2023-02-14T03:51:23.327Z,5.57
2023-02-14T03:54:27.135Z,4.93
2023-02-14T03:57:35.722Z,5.07
2023-02-14T04:00:41.251Z,4.82
2023-02-14T04:03:44.990Z,4.95
2023-02-14T04:06:47.733Z,4.93
2023-02-14T04:09:51.328Z,4.85
2023-02-14T04:12:54.131Z,5.47
2023-02-14T04:15:57.191Z,5.07
2023-02-14T04:19:18.548Z,5.07
2023-02-14T04:22:21.519Z,4.87
2023-02-14T04:25:24.205Z,4.90
2023-02-14T04:28:27.101Z,4.85
2023-02-14T04:31:30.008Z,5.75
2023-02-14T04:34:33.015Z,5.20
2023-02-14T04:37:35.767Z,4.87
2023-02-14T04:40:44.306Z,5.25
2023-02-14T04:43:46.933Z,4.78
2023-02-14T04:46:49.982Z,5.20
2023-02-14T04:49:53.000Z,4.72
2023-02-14T04:52:56.234Z,5.00
2023-02-14T04:55:58.905Z,5.72
2023-02-14T04:59:01.628Z,5.03
2023-02-14T05:02:04.588Z,5.25
2023-02-14T05:05:09.111Z,5.80
2023-02-14T05:08:14.448Z,5.70
2023-02-14T05:11:17.638Z,5.28
2023-02-14T05:14:20.248Z,5.93
2023-02-14T05:17:23.671Z,5.30
2023-02-14T05:20:26.278Z,6.47
2023-02-14T05:23:29.166Z,6.20
2023-02-14T05:26:31.892Z,5.85
2023-02-14T05:29:35.187Z,5.80
2023-02-14T05:32:37.694Z,5.55
2023-02-14T05:35:40.529Z,5.28
2023-02-14T05:38:43.659Z,5.20
2023-02-14T05:41:46.645Z,6.07
2023-02-14T05:44:49.290Z,5.62
2023-02-14T05:47:52.268Z,5.00
2023-02-14T05:50:54.886Z,5.40
2023-02-14T05:54:00.201Z,6.53
2023-02-14T05:57:02.782Z,5.43
2023-02-14T06:00:07.345Z,6.57
2023-02-14T06:03:14.755Z,6.12
2023-02-14T06:06:17.563Z,5.22
2023-02-14T06:09:20.059Z,5.77
2023-02-14T06:12:23.044Z,5.78
2023-02-14T06:15:25.884Z,6.00
2023-02-14T06:18:29.689Z,6.47
2023-02-14T06:21:32.330Z,6.07
2023-02-14T06:24:35.497Z,6.27
2023-02-14T06:27:38.006Z,7.37
2023-02-14T06:30:40.989Z,7.25
2023-02-14T06:33:43.629Z,7.50
2023-02-14T06:36:46.421Z,7.55
2023-02-14T06:39:49.153Z,6.97
2023-02-14T06:42:52.080Z,8.43
2023-02-14T06:45:54.535Z,7.62
2023-02-14T06:48:57.552Z,8.65
2023-02-14T06:52:00.847Z,9.05
2023-02-14T06:55:03.678Z,7.97
2023-02-14T06:58:06.136Z,8.25
2023-02-14T07:01:09.392Z,7.03
2023-02-14T07:04:12.361Z,8.43
2023-02-14T07:07:15.267Z,8.98
2023-02-14T07:10:18.051Z,8.70
2023-02-14T07:13:20.905Z,8.30
2023-02-14T07:16:23.428Z,9.38
2023-02-14T07:19:26.849Z,8.80
2023-02-14T07:22:30.426Z,9.63
2023-02-14T07:25:33.460Z,8.90
2023-02-14T07:28:35.960Z,9.10
2023-02-14T07:31:39.086Z,9.82
2023-02-14T07:34:41.699Z,9.50
2023-02-14T07:37:44.585Z,9.23
2023-02-14T07:40:47.125Z,9.90
2023-02-14T07:43:50.799Z,9.80
2023-02-14T07:46:53.290Z,8.65
2023-02-14T07:49:56.062Z,9.57
2023-02-14T07:52:58.601Z,9.50
2023-02-14T07:56:01.539Z,9.03
2023-02-14T07:59:04.425Z,9.77
2023-02-14T08:02:07.668Z,9.68
2023-02-14T08:05:10.825Z,10.00
2023-02-14T08:08:13.388Z,8.88
2023-02-14T08:11:36.345Z,8.60
2023-02-14T08:14:39.003Z,10.20
2023-02-14T08:17:41.773Z,9.60
2023-02-14T08:20:46.055Z,8.90
2023-02-14T08:23:48.930Z,8.98
2023-02-14T08:26:51.512Z,8.87
2023-02-14T08:29:54.472Z,9.55
2023-02-14T08:32:57.124Z,9.00
2023-02-14T08:36:00.427Z,9.00
2023-02-14T08:39:04.582Z,8.98
2023-02-14T08:42:07.388Z,9.07
2023-02-14T08:45:10.209Z,8.25
2023-02-14T08:48:13.244Z,7.53
2023-02-14T08:51:16.753Z,7.93
2023-02-14T08:54:19.599Z,7.72
2023-02-14T08:57:22.182Z,8.47
2023-02-14T09:00:25.340Z,9.65
2023-02-14T09:03:28.017Z,11.20
2023-02-14T09:06:30.845Z,12.85
2023-02-14T09:09:33.475Z,12.27
2023-02-14T09:12:40.293Z,11.30
2023-02-14T09:15:43.620Z,12.00
2023-02-14T09:18:48.124Z,11.68
2023-02-14T09:21:50.901Z,12.00
2023-02-14T09:24:53.750Z,12.02
2023-02-14T09:27:56.382Z,11.57
2023-02-14T09:30:59.738Z,11.60
2023-02-14T09:34:22.092Z,10.48
2023-02-14T09:37:43.564Z,10.63
2023-02-14T09:40:47.025Z,10.45
2023-02-14T09:43:54.581Z,10.70
2023-02-14T09:47:01.829Z,10.55
2023-02-14T09:50:07.385Z,9.85
2023-02-14T09:53:16.614Z,9.65
2023-02-14T09:56:51.320Z,10.45
2023-02-14T10:00:24.519Z,9.60
2023-02-14T10:04:06.384Z,8.90
2023-02-14T10:07:20.882Z,9.98
2023-02-14T10:10:30.907Z,9.95
2023-02-14T10:14:01.882Z,10.27
2023-02-14T10:17:18.232Z,9.27
2023-02-14T10:20:26.743Z,8.90
2023-02-14T10:23:43.904Z,10.02
2023-02-14T10:26:48.648Z,9.63
2023-02-14T10:29:52.201Z,9.43
2023-02-14T10:33:08.282Z,9.53
2023-02-14T10:36:25.089Z,9.55
2023-02-14T10:39:49.540Z,9.45
2023-02-14T10:43:05.303Z,9.00
2023-02-14T10:46:38.877Z,8.55
2023-02-14T10:49:47.212Z,9.23
2023-02-14T10:53:05.538Z,8.57
2023-02-14T10:56:15.759Z,8.30
2023-02-14T10:59:25.379Z,8.75
2023-02-14T11:02:37.933Z,8.50
2023-02-14T11:05:46.778Z,9.40
2023-02-14T11:08:49.710Z,9.35
2023-02-14T11:11:55.360Z,8.80
2023-02-14T11:15:14.949Z,9.75
2023-02-14T11:18:33.089Z,8.43
2023-02-14T11:21:40.817Z,8.63
2023-02-14T11:24:45.422Z,8.70
2023-02-14T11:27:51.079Z,8.18
2023-02-14T11:30:53.911Z,8.77
2023-02-14T11:33:57.881Z,8.30
2023-02-14T11:37:00.989Z,8.57
2023-02-14T11:40:05.307Z,9.32
2023-02-14T11:43:14.425Z,8.52
2023-02-14T11:46:20.712Z,8.38
2023-02-14T11:49:32.131Z,9.07
2023-02-14T11:52:53.247Z,8.47
2023-02-14T11:55:58.432Z,8.23
2023-02-14T11:59:03.824Z,8.55
2023-02-14T12:02:32.863Z,8.77
2023-02-14T12:05:43.698Z,7.70
2023-02-14T12:08:46.923Z,7.87
2023-02-14T12:12:05.059Z,8.50
2023-02-14T12:15:27.086Z,8.38
2023-02-14T12:18:39.317Z,7.80
2023-02-14T12:22:03.943Z,7.75
2023-02-14T12:25:17.523Z,7.23
2023-02-14T12:28:24.989Z,6.75
2023-02-14T12:31:28.060Z,8.05
2023-02-14T12:34:30.614Z,8.10
2023-02-14T12:38:03.894Z,7.35
2023-02-14T12:41:17.138Z,8.07
2023-02-14T12:44:36.466Z,8.80
2023-02-14T12:47:46.828Z,7.20
2023-02-14T12:50:57.664Z,6.75
2023-02-14T12:54:21.861Z,5.93
2023-02-14T12:57:32.011Z,6.83
2023-02-14T13:00:59.440Z,5.90
2023-02-14T13:04:05.252Z,6.97
2023-02-14T13:07:16.698Z,6.65
2023-02-14T13:10:24.679Z,6.22
2023-02-14T13:13:33.294Z,7.00
2023-02-14T13:17:06.278Z,6.32
2023-02-14T13:20:08.747Z,6.37
2023-02-14T13:23:35.618Z,5.72
2023-02-14T13:26:40.615Z,5.18
2023-02-14T13:29:47.219Z,5.37
2023-02-14T13:32:51.283Z,5.57
2023-02-14T13:36:01.029Z,4.95
2023-02-14T13:39:04.233Z,4.90
2023-02-14T13:42:07.655Z,5.20
2023-02-14T13:45:34.995Z,5.13
2023-02-14T13:48:39.209Z,6.47
2023-02-14T13:51:49.822Z,6.68
2023-02-14T13:55:01.803Z,6.78
2023-02-14T13:58:07.088Z,7.07
2023-02-14T14:01:50.260Z,6.90
2023-02-14T14:04:53.142Z,6.50
2023-02-14T14:08:20.594Z,6.40
2023-02-14T14:11:23.425Z,6.40
2023-02-14T14:14:36.271Z,7.40
2023-02-14T14:17:46.112Z,6.47
2023-02-14T14:20:48.925Z,6.60
2023-02-14T14:24:13.802Z,6.55
2023-02-14T14:27:20.434Z,6.82
2023-02-14T14:30:31.269Z,6.20
2023-02-14T14:33:34.906Z,6.80
2023-02-14T14:36:37.875Z,7.12
2023-02-14T14:39:40.436Z,7.05
2023-02-14T14:42:43.412Z,6.65
2023-02-14T14:45:47.296Z,7.03
2023-02-14T14:48:51.976Z,7.47
2023-02-14T14:51:56.468Z,6.75
2023-02-14T14:55:00.096Z,7.35
2023-02-14T14:58:05.084Z,7.18
2023-02-14T15:01:13.262Z,7.57
2023-02-14T15:04:25.462Z,7.80
2023-02-14T15:07:34.916Z,7.32
2023-02-14T15:10:37.613Z,6.75
2023-02-14T15:13:49.898Z,7.05
2023-02-14T15:16:57.634Z,6.57
2023-02-14T15:20:04.410Z,6.47
2023-02-14T15:23:07.868Z,7.00
2023-02-14T15:26:34.073Z,7.12
2023-02-14T15:29:36.727Z,7.45
2023-02-14T15:32:39.630Z,8.10
2023-02-14T15:35:42.575Z,7.63
2023-02-14T15:38:51.214Z,7.28
2023-02-14T15:41:55.579Z,7.50
2023-02-14T15:45:22.515Z,7.75
2023-02-14T15:48:30.687Z,7.70
2023-02-14T15:51:36.356Z,9.67
2023-02-14T15:54:42.854Z,9.35
2023-02-14T15:57:49.786Z,8.35
2023-02-14T16:00:53.191Z,8.93
2023-02-14T16:03:59.894Z,9.07
2023-02-14T16:07:23.983Z,10.13
2023-02-14T16:10:29.894Z,9.68
2023-02-14T16:13:35.247Z,9.50
2023-02-14T16:17:01.633Z,8.18
2023-02-14T16:20:28.029Z,7.95
2023-02-14T16:23:31.566Z,7.57
2023-02-14T16:26:38.180Z,7.82
2023-02-14T16:29:41.588Z,7.78
2023-02-14T16:32:50.172Z,7.97
2023-02-14T16:35:53.366Z,7.00
2023-02-14T16:38:56.872Z,7.30
2023-02-14T16:41:59.842Z,7.65
2023-02-14T16:45:02.394Z,9.65
2023-02-14T16:48:05.745Z,9.73
2023-02-14T16:51:14.107Z,13.18
2023-02-14T16:54:20.658Z,15.37
2023-02-14T16:57:28.698Z,19.45
2023-02-14T17:00:31.791Z,25.35
2023-02-14T17:03:34.616Z,21.98
2023-02-14T17:06:39.749Z,19.15
2023-02-14T17:09:50.289Z,15.83
2023-02-14T17:12:53.421Z,13.45
2023-02-14T17:15:56.768Z,18.62
2023-02-14T17:19:02.337Z,16.10
2023-02-14T17:22:05.008Z,21.77
2023-02-14T17:25:09.048Z,22.33
2023-02-14T17:28:11.654Z,19.17
2023-02-14T17:31:14.841Z,18.77
2023-02-14T17:34:17.464Z,15.82
2023-02-14T17:37:20.845Z,16.58
2023-02-14T17:40:23.707Z,17.50
2023-02-14T17:43:26.969Z,19.10
2023-02-14T17:46:30.900Z,20.88
2023-02-14T17:49:34.211Z,22.67
2023-02-14T17:52:37.923Z,19.20
2023-02-14T17:55:41.071Z,22.70
2023-02-14T17:58:44.293Z,24.02
2023-02-14T18:01:47.903Z,21.83
2023-02-14T18:04:51.157Z,18.80
2023-02-14T18:07:53.974Z,18.15
2023-02-14T18:10:57.167Z,17.00
2023-02-14T18:14:01.826Z,11.07
2023-02-14T18:17:04.845Z,14.30
2023-02-14T18:20:08.084Z,13.68
2023-02-14T18:23:11.257Z,9.13
2023-02-14T18:26:16.798Z,7.87
2023-02-14T18:29:20.570Z,7.70
2023-02-14T18:32:23.855Z,7.22
2023-02-14T18:35:26.775Z,7.25
2023-02-14T18:38:29.754Z,6.82
2023-02-14T18:41:33.205Z,7.23
2023-02-14T18:44:36.318Z,7.85
2023-02-14T18:47:39.152Z,6.07
2023-02-14T18:50:41.965Z,6.68
2023-02-14T18:53:45.792Z,5.35
2023-02-14T18:56:48.601Z,5.10
2023-02-14T18:59:52.004Z,4.78
2023-02-14T19:02:56.898Z,4.43
2023-02-14T19:06:00.372Z,4.30
2023-02-14T19:09:06.973Z,4.10
2023-02-14T19:12:11.842Z,3.83
2023-02-14T19:15:14.626Z,4.12
2023-02-14T19:18:17.797Z,4.20
2023-02-14T19:21:23.677Z,5.18
2023-02-14T19:24:30.002Z,8.60
2023-02-14T19:27:34.037Z,9.77
2023-02-14T19:30:37.673Z,9.85
2023-02-14T19:33:43.020Z,7.65
2023-02-14T19:36:46.481Z,6.80
2023-02-14T19:39:49.477Z,5.12
2023-02-14T19:42:53.339Z,5.23
2023-02-14T19:45:57.198Z,4.95
2023-02-14T19:49:01.520Z,4.93
2023-02-14T19:52:06.254Z,4.87
2023-02-14T19:55:21.811Z,31.48
2023-02-14T19:58:26.074Z,39.60
2023-02-14T20:01:33.777Z,35.58
2023-02-14T20:04:37.137Z,33.67
2023-02-14T20:07:40.039Z,32.15
2023-02-14T20:10:43.513Z,31.25
2023-02-14T20:13:46.382Z,26.13
2023-02-14T20:16:50.466Z,17.87
2023-02-14T20:19:53.633Z,14.68
2023-02-14T20:22:56.831Z,12.88
2023-02-14T20:25:59.838Z,11.35
2023-02-14T20:29:05.400Z,10.83
2023-02-14T20:32:09.491Z,11.30
2023-02-14T20:35:13.543Z,11.07
2023-02-14T20:38:16.794Z,10.00
2023-02-14T20:41:20.562Z,8.85
2023-02-14T20:44:23.813Z,7.20
2023-02-14T20:47:26.956Z,7.12
2023-02-14T20:50:31.121Z,6.12
2023-02-14T20:53:34.242Z,6.80
2023-02-14T20:56:39.267Z,6.20
2023-02-14T20:59:44.844Z,5.70
2023-02-14T21:02:47.723Z,6.50
2023-02-14T21:05:50.803Z,6.32
2023-02-14T21:08:53.681Z,5.55
2023-02-14T21:11:58.380Z,5.72
2023-02-14T21:15:01.368Z,15.17
2023-02-14T21:18:05.251Z,24.55
2023-02-14T21:21:13.013Z,27.05
2023-02-14T21:24:16.449Z,29.08
2023-02-14T21:27:19.395Z,27.10
2023-02-14T21:30:22.876Z,25.30
2023-02-14T21:33:25.763Z,22.55
2023-02-14T21:36:31.296Z,19.83
2023-02-14T21:39:35.804Z,19.50
2023-02-14T21:42:39.467Z,21.87
2023-02-14T21:45:53.412Z,20.07
2023-02-14T21:49:19.227Z,19.85
2023-02-14T21:52:22.175Z,19.55
2023-02-14T21:55:25.363Z,18.58
2023-02-14T21:58:28.574Z,18.37
2023-02-14T22:01:34.627Z,19.57
2023-02-14T22:04:38.131Z,17.35
2023-02-14T22:07:41.102Z,18.12
2023-02-14T22:10:44.007Z,17.50
2023-02-14T22:13:46.924Z,16.65
2023-02-14T22:16:49.911Z,13.73
2023-02-14T22:19:52.744Z,11.80
2023-02-14T22:22:55.644Z,10.98
2023-02-14T22:26:11.154Z,11.60
2023-02-14T22:29:14.022Z,9.25
2023-02-14T22:32:17.630Z,9.30
2023-02-14T22:35:20.615Z,11.02
2023-02-14T22:38:23.654Z,10.23
2023-02-14T22:41:26.694Z,10.35
2023-02-14T22:44:29.232Z,11.18
2023-02-14T22:47:32.444Z,9.90
2023-02-14T22:50:35.644Z,9.35
2023-02-14T22:53:39.251Z,9.88
2023-02-14T22:56:51.540Z,11.60
2023-02-14T22:59:54.460Z,11.52
2023-02-14T23:02:57.174Z,12.00
2023-02-14T23:06:00.752Z,13.23
2023-02-14T23:09:05.717Z,12.77
2023-02-14T23:12:28.674Z,13.75
2023-02-14T23:15:50.351Z,12.30
2023-02-14T23:19:11.806Z,11.67
2023-02-14T23:22:19.454Z,10.25
2023-02-14T23:25:22.243Z,9.68
2023-02-14T23:28:25.241Z,8.80
2023-02-14T23:31:28.194Z,9.57
2023-02-14T23:34:32.558Z,8.53
2023-02-14T23:37:35.456Z,8.63
2023-02-14T23:40:56.848Z,7.20
2023-02-14T23:43:59.857Z,7.62
2023-02-14T23:47:04.588Z,8.63
2023-02-14T23:50:07.985Z,11.07
2023-02-14T23:53:10.566Z,11.15
2023-02-14T23:56:13.530Z,9.80
2023-02-14T23:59:16.530Z,9.43
